Tiempo atmosférico en la estación meteorológica de Antequera, Málaga (400 m.)



Fecha
DESCASC
Temp. máxima en grados centígrados (hora)
DESCASC
Temp. mínima en grados centígrados (hora)
DESCASC
Temp. media en grados centígrados
DESCASC
Racha de viento máxima en m/sg (hora)
DESCASC
Velocidad máxima media en intervalos de 10 minutos(hora)
DESCASC
Precipitaciones diarias en mm
DESCASC
Precipitaciones de 00:00 a 06:00 en mm
DESCASC
Precipitaciones de 06:00 a 12:00 en mm
DESCASC
Precipitaciones de 12:00 a 18:00 en mm
DESCASC
Precipitaciones de 18:00 a 24:00 en mm
DESCASC
21-02-2021 13.6 (11:40) 6.5 (22:50) 10.1 13.61 (02:20) 7.22 (01:40) 4.9 0 0 4.9 0
20-02-2021 16.3 (15:00) 10.3 (08:30) 13.3 12.22 (08:50) 6.94 (23:50) 0 0 0 0 0
19-02-2021 19.6 (14:30) 1.3 (08:10) 10.5 11.94 (22:00) 5.83 (22:00) 0 0 0 0 0
18-02-2021 17.9 (14:10) 2.7 (00:00) 10.3 5 (14:30) 2.22 (19:10) 0 0 0 0 0
17-02-2021 20.6 (15:10) 2.2 (00:00) 11.4 5.28 (13:50) 2.78 (15:30) 0 0 0 0 0
16-02-2021 18.8 (16:10) 8.3 (00:00) 13.5 13.61 (02:40) 6.67 (02:30) 0 0 0 0 0
15-02-2021 14.6 (14:10) 10.6 (00:00) 12.6 16.11 (20:50) 8.33 (21:20) 0 0 0 0 0
14-02-2021 17.2 (13:10) 1.6 (00:00) 9.4 14.72 (23:59) 7.5 (23:10) 0 0 0 0 0
13-02-2021 16.8 (17:10) 2 (00:00) 9.4 5.83 (00:20) 3.06 (00:30) 0 0 0 0 0
12-02-2021 16 (14:50) 10.2 (00:00) 13.1 8.61 (15:10) 4.72 (12:50) 0.1 0 0.1 0 0
11-02-2021 16.3 (15:40) 11.4 (00:00) 13.8 4.72 (00:30) 2.5 (16:40) 1.1 1 0.1 0 0
10-02-2021 15.2 (16:00) 10.3 (00:00) 12.8 10.83 (14:00) 4.72 (21:40) 1.6 1.2 0.3 0 0.1
09-02-2021 15.9 (15:30) 7.8 (00:00) 11.8 13.89 (21:10) 5 (23:10) 5.2 0 0 1.4 3.8
08-02-2021 13.9 (15:10) 8.5 (00:00) 11.2 11.67 (15:10) 5.28 (15:10) 11.6 1.8 9.7 0 0.1
07-02-2021 11.4 (15:00) 7.6 (00:00) 9.5 10.56 (14:40) 5 (14:00) 0.2 0.2 0 0 0
06-02-2021 14.4 (14:00) 8.4 (00:00) 11.4 11.11 (14:20) 4.44 (01:10) 0.1 0 0 0 0.1
05-02-2021 16.2 (14:30) 9.9 (00:00) 13.1 13.33 (06:40) 5.28 (05:40) 2.3 0 0 0.4 1.9
04-02-2021 18.4 (15:10) 7.4 (00:00) 12.9 10.83 (12:20) 5.56 (12:20) 0 0 0 0 0
03-02-2021 15.2 (16:30) 5.1 (00:00) 10.1 3.89 (12:30) 2.22 (19:00) 0 0 0 0 0
02-02-2021 15.7 (16:40) 8.8 (00:00) 12.3 3.89 (16:20) 2.22 (18:10) 0 0 0 0 0
01-02-2021 15.9 (16:30) 9.4 (00:00) 12.6 8.61 (14:20) 4.17 (14:50) 1.4 1.4 0 0 0
31-01-2021 15 (15:30) 8.1 (00:00) 11.6 10.28 (21:10) 5 (15:40) 0 0 0 0 0
30-01-2021 14.8 (16:40) 9.6 (00:00) 12.2 11.94 (16:40) 5.83 (16:10) 0 0 0 0 0
29-01-2021 18.5 (17:10) 5.2 (00:00) 11.8 7.5 (18:10) 4.72 (18:10) 0.2 0 0.2 0 0
28-01-2021 23.1 (16:20) 6.6 (00:00) 14.9 3.33 (20:10) 1.94 (20:20) 0.2 0.1 0.1 0 0
27-01-2021 17.6 (15:00) 10.6 (00:00) 14.1 6.67 (15:20) 2.78 (17:20) 0.4 0.4 0 0 0
26-01-2021 15.7 (15:30) 11.9 (00:00) 13.8 6.67 (00:40) 3.06 (13:00) 0.5 0 0 0.2 0.3
25-01-2021 16.4 (15:50) 8.9 (00:00) 12.6 13.89 (15:30) 5.28 (15:40) 0.5 0.1 0.1 0.3 0

Gráficas

Temp. máximas Temp. mínimas Temp. medias Precipitaciones Rachas de viento máximas Velocidades máximas media en intervalos de 10 minutos

Datos horarios

Fecha y hora oficial Temperatura (ºC) Velocidad del viento (km/h) Dirección del viento Racha (km/h) Dirección de racha Precipitación (mm) Presión (hPa) Tendencia (hPa) Humedad (%)
2021-02-23 23:00:00 9.8 13 Sudeste 34 Sudeste 0 983 1.2 68
2021-02-23 22:00:00 10.5 14 Sudeste 36 Sudeste 0 982.6 1.1 66
2021-02-23 21:00:00 10.5 12 Sudeste 33 Sudeste 0 981.9 0.6 74
2021-02-23 20:00:00 10.8 14 Sudeste 31 Sudeste 0 981.8 0.5 69
2021-02-23 19:00:00 11.7 15 Sur 36 Sur 0 981.5 -- 53
2021-02-23 18:00:00 12.9 15 Sur 35 Sur 0 981.3 -- 47
2021-02-23 17:00:00 14 12 Sur 28 Sudeste 0 981.3 -- 45
2021-02-23 16:00:00 14.3 14 Sur 32 Sur 0 981.4 -- 42
2021-02-23 15:00:00 15 8 Sur 29 Sudeste 0 981.3 -- 41
2021-02-23 14:00:00 14.7 13 Sur 33 Sudeste 0 981.5 -- 40
2021-02-23 13:00:00 14.6 12 Sur 24 Sudeste 0 981.8 -- 41
2021-02-23 12:00:00 11 3 Este 10 Sudeste 0 982.1 -- 61
2021-02-23 11:00:00 7.6 4 Este 10 Este 0 982.2 -- 73
2021-02-23 10:00:00 4.9 0 Calma 5 Este 0 981.6 -- 89
2021-02-23 09:00:00 2.8 0 Calma 6 Oeste 0 980.8 -- 94
2021-02-23 08:00:00 1.8 5 Noroeste 7 Noroeste 0 979.9 -- 94
2021-02-23 07:00:00 1.8 0 Calma 6 Nordeste 0 979.2 -- 94
2021-02-23 06:00:00 1 0 Calma 11 Sur 0 979 -- 93
2021-02-23 05:00:00 3.5 0 Calma 6 Noroeste 0 979 -- 92
2021-02-23 04:00:00 2.8 0 Calma 6 Noroeste 0 978.8 -- 92
2021-02-23 03:00:00 3.9 0 Calma 6 Nordeste 0 978.6 -- 90
2021-02-23 02:00:00 4.4 2 Oeste 9 Norte 0 978.4 -- 89
2021-02-23 01:00:00 5.1 3 Noroeste 10 Nordeste 0 978.3 -- 87
2021-02-23 00:00:00 4.6 3 Nordeste 9 Nordeste 0 977.8 -- 89
2021-02-22 23:00:00 6.2 4 Nordeste 7 Nordeste 0 977.5 -- 83
2021-02-22 22:00:00 7.2 4 Noroeste 7 Noroeste 0 976.7 -- 77
2021-02-22 21:00:00 7.7 0 Calma 5 Oeste 0 976 -- 74
2021-02-22 20:00:00 9.3 2 Noroeste 9 Noroeste 0 975.4 -- 64
2021-02-22 19:00:00 11 4 Noroeste 18 Noroeste 0 974.6 -- 54
2021-02-22 18:00:00 12.3 9 Oeste 23 Oeste 0 973.6 -- 49
2021-02-22 17:00:00 12.8 11 Oeste 25 Oeste 0 973.4 -- 49
2021-02-22 16:00:00 12.4 12 Oeste 26 Noroeste 0 972.8 -- 47
2021-02-22 15:00:00 12 9 Noroeste 26 Noroeste 0 972.7 -- 46
2021-02-22 14:00:00 11.9 11 Oeste 21 Noroeste 0 972.9 -- 46
2021-02-22 13:00:00 11.1 8 Noroeste 20 Oeste 0 973.1 -- 51
2021-02-22 12:00:00 9.5 5 Noroeste 31 Noroeste 0 973.1 -- 59
2021-02-22 11:00:00 8 3 Este 10 Sudeste 0 972.8 -- 80
2021-02-22 10:00:00 5.5 2 Sudeste 5 Sudeste 0 972.5 -- 92
2021-02-22 09:00:00 3.2 0 Calma 6 Norte 0 971.8 -- 94
2021-02-22 08:00:00 2.8 0 Calma 5 Norte 0 970.8 -- 93
2021-02-22 07:00:00 3.2 4 Nordeste 7 Norte 0 970.3 1.7 93
2021-02-22 06:00:00 3.8 0 Calma 0 Calma 0 969.5 -- 92
2021-02-22 05:00:00 4.3 0 Calma 6 Noroeste 0 969 -- 90
2021-02-22 04:00:00 5.2 0 Calma 12 Oeste 0 968.6 -- 88
2021-02-22 03:00:00 6.5 5 Oeste 15 Oeste 0 968.6 -- 86
2021-02-22 02:00:00 7 7 Oeste 19 Oeste 0 967.8 -- 84
2021-02-22 01:00:00 6.5 8 Oeste 18 Oeste 0 966.9 -- 86
2021-02-22 00:00:00 6.8 6 Oeste 15 Oeste 0 966.2 -- 87
2021-02-21 23:00:00 6.6 4 Oeste 14 Oeste 0 965.6 -- 87
2021-02-21 22:00:00 7.3 6 Oeste 14 Oeste 0 964.8 3.1 84
2021-02-21 21:00:00 7.6 2 Sudoeste 13 Oeste 0 964.1 -- 83
2021-02-21 20:00:00 8.6 6 Oeste 22 Oeste 0 963.3 -- 80
2021-02-21 19:00:00 8.8 8 Oeste 24 Oeste 0 961.7 -- 78
2021-02-21 18:00:00 8.6 11 Oeste 36 Oeste 0 960.5 -- 80
2021-02-21 17:00:00 9.4 14 Oeste 29 Oeste 0 959.1 -- 81
2021-02-21 16:00:00 9.5 12 Oeste 31 Oeste 0 958 -- 78
2021-02-21 15:00:00 9.9 2 Sudoeste 13 Sudoeste 0.2 956.9 -- 90
2021-02-21 14:00:00 9 6 Sudoeste 31 Sur 2.5 957.3 -- 90
2021-02-21 13:00:00 10.2 9 Sur 35 Sur 2.2 957.7 -- 86
2021-02-21 12:00:00 13.4 9 Sur 25 Sudeste 0 957.6 -- 62
2021-02-21 11:00:00 12.9 3 Este 10 Sudeste 0 957.9 -- 60
2021-02-21 10:00:00 11.4 3 Sudeste 9 Oeste 0 958.2 -- 68
2021-02-21 09:00:00 10.6 5 Oeste 12 Noroeste 0 958.4 -- 70
2021-02-21 08:00:00 10.6 3 Noroeste 10 Noroeste 0 957.9 -- 70
2021-02-21 07:00:00 11 0 Calma 11 Noroeste 0 958.7 -- 69
2021-02-21 06:00:00 11.5 6 Oeste 12 Noroeste 0 958.9 -- 68
2021-02-21 05:00:00 11.6 0 Calma 13 Sudoeste 0 960 -- 74
2021-02-21 04:00:00 11.7 3 Oeste 32 Sur 0 960 -- 72
2021-02-21 03:00:00 11.8 14 Sur -- -- -- 960.6 -- 75
2021-02-21 02:00:00 11.7 23 Sur 45 Sur 0 960.7 -- 75
2021-02-21 01:00:00 11.9 13 Sur 45 Sudeste 0 961.4 -- 72
2021-02-21 00:00:00 11.8 23 Sur 44 Sur 0 961.8 -- 72
2021-02-20 23:00:00 11.8 10 Sur 37 Sudeste 0 962.7 -- 75
2021-02-20 22:00:00 11.7 14 Sudeste 31 Sur 0 963 -- 71
2021-02-20 21:00:00 11.8 14 Sur 37 Sur 0 963.1 -- 70
2021-02-20 20:00:00 11.7 14 Sur 30 Sur 0 963.2 -- 67
2021-02-20 19:00:00 12.9 13 Sur 36 Sur 0 963.4 -- 58
2021-02-20 18:00:00 13.9 20 Sur 40 Sur 0 963.5 -- 56
2021-02-20 17:00:00 14.8 19 Sur 41 Sur 0 963.9 -- 54
2021-02-20 16:00:00 15.8 8 Sur 28 Sur 0 964.5 -- 53
2021-02-20 15:00:00 15.8 7 Sur 27 Sur 0 965.2 -- 52
2021-02-20 14:00:00 15.3 12 Sur 40 Sudeste 0 966.3 -- 58
2021-02-20 13:00:00 15.2 17 Sur 37 Sudeste 0 967 -- 56
2021-02-20 12:00:00 14.2 18 Sudeste 35 Sudeste 0 967.8 -- 62
2021-02-20 11:00:00 12.7 14 Sudeste 38 Sudeste 0 968.2 -- 64
2021-02-20 10:00:00 11.8 22 Sur 42 Sudeste 0 968.3 -- 71
2021-02-20 09:00:00 10.6 23 Sudeste 44 Sudeste 0 968.5 1 75
2021-02-20 08:00:00 10.7 6 Sudoeste 40 Sur 0 968.3 -- 60
2021-02-20 07:00:00 12.2 17 Sudeste 37 Sudeste 0 967.5 -- 46
2021-02-20 06:00:00 12.3 9 Sur 24 Sudoeste 0 967.5 -- 43
2021-02-20 05:00:00 10.9 12 Sudeste 26 Sur 0 967.4 -- 59
2021-02-20 04:00:00 -- -- -- -- -- -- -- -- --
2021-02-20 03:00:00 -- -- -- -- -- -- -- -- --
2021-02-20 02:00:00 -- -- -- -- -- -- -- -- --
2021-02-20 01:00:00 -- -- -- -- -- -- -- -- --
2021-02-20 00:00:00 -- -- -- -- -- -- -- -- --
2021-02-19 23:00:00 -- -- -- -- -- -- -- -- --
2021-02-19 22:00:00 -- -- -- -- -- -- -- -- --
2021-02-19 21:00:00 -- -- -- -- -- -- -- -- --
2021-02-19 20:00:00 -- -- -- -- -- -- -- -- --
2021-02-19 19:00:00 -- -- -- -- -- -- -- -- --
2021-02-19 18:00:00 -- -- -- -- -- -- -- -- --
2021-02-19 17:00:00 -- -- -- -- -- -- -- -- --
2021-02-19 16:00:00 -- -- -- -- -- -- -- -- --
2021-02-19 15:00:00 -- -- -- -- -- -- -- -- --
2021-02-19 14:00:00 -- -- -- -- -- -- -- -- --
2021-02-19 13:00:00 -- -- -- -- -- -- -- -- --
2021-02-19 12:00:00 -- -- -- -- -- -- -- -- --
2021-02-19 11:00:00 -- -- -- -- -- -- -- -- --
2021-02-19 10:00:00 -- -- -- -- -- -- -- -- --
2021-02-19 09:00:00 2.5 0 Calma 4 Este 0 971.4 -- 95
2021-02-19 08:00:00 1.4 0 Calma 5 Sur 0 971.1 -- 95
2021-02-19 07:00:00 2.1 2 Norte 4 Norte 0 971.2 -- 95
2021-02-19 06:00:00 2.8 0 Calma 3 Sudoeste 0 970.9 -- 95
2021-02-19 05:00:00 3.5 0 Calma 4 Oeste 0 970.7 -- 95
2021-02-19 04:00:00 4.2 0 Calma 5 Norte 0 971.1 -- 95
2021-02-19 03:00:00 4.7 0 Calma -- -- 0 971.4 -- 92
2021-02-19 02:00:00 6 0 Calma 4 Oeste 0 971.5 -- 91
2021-02-19 01:00:00 8.1 0 Calma 4 Noroeste 0 971.6 -- 90
2021-02-19 00:00:00 8.6 2 Noroeste 4 Noroeste 0 972 -- 88
2021-02-18 23:00:00 9.5 0 Calma 3 Nordeste 0 972.1 -- 87
2021-02-18 22:00:00 11 0 Calma 5 Noroeste 0 972 -- 83
2021-02-18 21:00:00 12.3 0 Calma 6 Nordeste 0 971.8 -- 77
2021-02-18 20:00:00 13.7 2 Noroeste 13 Noroeste 0 971.6 -- 72
2021-02-18 19:00:00 14.8 6 Noroeste 12 Noroeste 0 970.9 -- 65
2021-02-18 18:00:00 16.9 3 Noroeste 13 Norte 0 970.3 -- 53
2021-02-18 17:00:00 17.1 5 Nordeste 12 Norte 0 970.2 -- 55
2021-02-18 16:00:00 17.3 4 Norte 15 Norte 0 970.2 -- 54
2021-02-18 15:00:00 17.4 3 Norte 18 Noroeste 0 970.3 -- 56
2021-02-18 14:00:00 17.6 3 Noroeste 12 Noroeste 0 970.7 -- 46
2021-02-18 13:00:00 16.4 4 Oeste 10 Oeste 0 971.2 -- 45
2021-02-18 12:00:00 14.2 0 Calma 8 Noroeste 0 971.5 -- 59
2021-02-18 11:00:00 10.3 0 Calma 4 Sudeste 0 971.4 -- 71
2021-02-18 10:00:00 5.8 0 Calma 5 Este 0 971.3 -- 87
2021-02-18 09:00:00 4.1 0 Calma 5 Oeste 0 971 -- 92
2021-02-18 08:00:00 3.7 0 Calma 4 Oeste 0 970.6 -- 90
2021-02-18 07:00:00 3.9 0 Calma 5 Oeste 0 970.4 -- 90
2021-02-18 06:00:00 4.1 2 Este 7 Nordeste 0 970.4 -- 91
2021-02-18 05:00:00 5.5 0 Calma 5 Nordeste 0 970.2 -- 89
2021-02-18 04:00:00 6.1 0 Calma 4 Oeste 0 970.5 -- 86
2021-02-18 03:00:00 6.6 3 Nordeste 6 Sudoeste 0 970.6 -- 83
2021-02-18 02:00:00 8.5 4 Oeste 8 Sudoeste 0 970.7 -- 73
2021-02-18 01:00:00 8.6 0 Calma 6 Sudoeste 0 970.9 -- 70
2021-02-18 00:00:00 9.2 4 Oeste 11 Nordeste 0 971.4 -- 70
2021-02-17 23:00:00 10.5 0 Calma 6 Oeste 0 971.5 -- 64
2021-02-17 22:00:00 12.1 2 Oeste 5 Oeste 0 971.4 -- 59
2021-02-17 21:00:00 13.3 0 Calma 8 Sudoeste 0 971.2 -- 56
2021-02-17 20:00:00 14.6 4 Oeste 8 Oeste 0 971 -- 55
2021-02-17 19:00:00 16.7 3 Oeste 8 Sudoeste 0 970.9 -- 49
2021-02-17 18:00:00 19.4 4 Sudoeste 14 Sur 0 971.1 -- 41
2021-02-17 17:00:00 19.6 8 Sur 17 Sur 0 971.3 -- 42
2021-02-17 16:00:00 19.9 8 Sudeste 17 Sudeste 0 971.4 -- 40
2021-02-17 15:00:00 20.1 8 Sur 18 Sur 0 972 -- 40
2021-02-17 14:00:00 20 6 Sur 19 Sur 0 972.7 -- 35
2021-02-17 13:00:00 17.2 2 Sudoeste 6 Sudoeste 0 973.8 -- 51
2021-02-17 12:00:00 13 0 Calma 5 Sudeste 0 974.6 -- 66
2021-02-17 11:00:00 7.8 3 Sudeste 7 Este 0 975 -- 84
2021-02-17 10:00:00 4.8 3 Este 6 Este 0 975.1 -- 95
2021-02-17 09:00:00 2.3 0 Calma 4 Oeste 0 975.1 -- 94
2021-02-17 08:00:00 2.5 0 Calma 2 Oeste 0 975 -- 93
2021-02-17 07:00:00 3 0 Calma -- -- 0 975.1 -- 95
2021-02-17 06:00:00 3.6 0 Calma 3 Nordeste 0 975.2 -- 94
2021-02-17 05:00:00 4.3 0 Calma -- -- 0 975.3 -- 93
2021-02-17 04:00:00 5.7 0 Calma 3 Noroeste 0 975.7 -- 90
2021-02-17 03:00:00 6.5 0 Calma -- -- 0 976 -- 89
2021-02-17 02:00:00 7 0 Calma 6 Oeste 0 976.1 -- 89
2021-02-17 01:00:00 7.9 0 Calma 6 Sur 0 976.5 -- 89
2021-02-17 00:00:00 8.3 0 Calma 4 Oeste 0 977.1 -- 86
2021-02-16 23:00:00 9.8 3 Oeste 4 Sudoeste 0 977.2 -- 81
2021-02-16 22:00:00 10.3 0 Calma 8 Noroeste 0 977.2 -- 75
2021-02-16 21:00:00 11.9 4 Oeste 8 Oeste 0 976.7 -- 69
2021-02-16 20:00:00 13 4 Oeste 7 Sudoeste 0 976.6 -- 64
2021-02-16 19:00:00 15.1 2 Oeste 9 Sur 0 976.4 -- 58
2021-02-16 18:00:00 17.7 2 Sudoeste 10 Oeste 0 976.5 -- 47
2021-02-16 17:00:00 18.4 2 Sur 15 Nordeste 0 976.7 -- 46
2021-02-16 16:00:00 18.1 3 Sur 15 Sur 0 977 -- 44
2021-02-16 15:00:00 17.6 8 Sudeste 19 Sudeste 0 977.7 -- 50
2021-02-16 14:00:00 16.6 11 Sudeste 22 Sudeste 0 978.5 -- 52
2021-02-16 13:00:00 15.4 9 Sudeste 23 Sudeste 0 979.5 -- 55
2021-02-16 12:00:00 13.6 12 Sudeste 30 Sudeste 0 980.3 -- 59
2021-02-16 11:00:00 12.2 9 Sur 28 Sur 0 980.2 -- 65
2021-02-16 10:00:00 10.8 5 Sudeste 22 Este 0 980 -- 66
2021-02-16 09:00:00 9.4 3 Noroeste 27 Sudeste 0 979.2 -- 70
2021-02-16 08:00:00 9.1 8 Sudeste 39 Sur 0 978.7 -- 69
2021-02-16 07:00:00 9.3 16 Sur 41 Sur 0 978.6 -- 70
2021-02-16 06:00:00 9.6 21 Sudeste 41 Sur 0 978.9 -- 69
2021-02-16 05:00:00 10.1 18 Sudeste 42 Sudeste 0 979.2 -- 64
2021-02-16 04:00:00 10.4 19 Sudeste 42 Sur 0 979.6 -- 62
2021-02-16 03:00:00 10.8 22 Sudeste 49 Sudeste 0 979.8 -- 62
2021-02-16 02:00:00 10.5 21 Sudeste 42 Sur 0 980.2 -- 63
2021-02-16 01:00:00 10.6 18 Sur 42 Sudeste 0 980.6 -- 65
2021-02-16 00:00:00 10.9 24 Sur 50 Sudeste 0 980.7 -- 66
2021-02-15 23:00:00 10.7 21 Sur 52 Sudeste 0 980.5 -- 69
2021-02-15 22:00:00 11.1 24 Sudeste 56 Sur 0 980.2 -- 62
2021-02-15 21:00:00 10.9 27 Sur 58 Sur 0 980.2 -- 62
2021-02-15 20:00:00 11.6 27 Sur 51 Sur 0 980.3 -- 59
2021-02-15 19:00:00 12 21 Sur 48 Sur 0 980.1 -- 58
2021-02-15 18:00:00 12.7 25 Sur 54 Sur 0 980 -- 53
2021-02-15 17:00:00 13.4 22 Sur 45 Sudeste 0 980.2 -- 54
2021-02-15 16:00:00 14.1 21 Sur 47 Sur 0 980.4 -- 52
2021-02-15 15:00:00 14.1 22 Sudeste 50 Sur 0 980.9 -- 53
2021-02-15 14:00:00 14 24 Sudeste 52 Sur 0 981.3 -- 55
2021-02-15 13:00:00 13.3 24 Sur 50 Sur 0 982.1 -- 61
2021-02-15 12:00:00 13 22 Sudeste 48 Sur 0 982.2 -- 63
2021-02-15 11:00:00 12.2 22 Sur 55 Sudeste 0 982 -- 65
2021-02-15 10:00:00 11.6 23 Sur 56 Sur 0 981.7 -- 63
2021-02-15 09:00:00 11.1 24 Sur -- -- -- 980.9 -- 66
2021-02-15 08:00:00 10.8 21 Sudeste 50 Sur 0 980.3 -- 66
2021-02-15 07:00:00 10.7 21 Sur 50 Sudeste 0 980.2 -- 66
2021-02-15 06:00:00 10.9 20 Sur 49 Sur 0 980.2 -- 65
2021-02-15 05:00:00 10.8 22 Sudeste 55 Sudeste 0 980.1 -- 65
2021-02-15 04:00:00 10.8 22 Sur 46 Sur 0 980.3 -- 68
2021-02-15 03:00:00 11.6 27 Sur 54 Sur 0 980.7 -- 57
2021-02-15 02:00:00 11.9 26 Sur 57 Sudeste 0 980.8 -- 54
2021-02-15 01:00:00 12.2 28 Sudeste 53 Sur 0 980.8 -- 51
2021-02-15 00:00:00 12.3 25 Sur 53 Sur 0 981 -- 51
2021-02-14 23:00:00 12.3 26 Sur 47 Sur 0 981 -- 52
2021-02-14 22:00:00 12.2 19 Sudeste 40 Sudeste 0 980.5 -- 55
2021-02-14 21:00:00 12 18 Sur 45 Sur 0 980.2 -- 60
2021-02-14 20:00:00 12.4 18 Sur 39 Sur 0 979.9 -- 68
2021-02-14 19:00:00 13.2 18 Sur 39 Sudeste 0 979.5 0.7 56
2021-02-14 18:00:00 14.9 18 Sur 41 Sur 0 979.1 0.6 42
2021-02-14 17:00:00 15.9 20 Sur 40 Sur 0 978.9 -- 38
2021-02-14 16:00:00 16.5 15 Sur 39 Sudeste 0 978.8 -- 38
2021-02-14 15:00:00 16.7 15 Sur 35 Sur 0 978.5 -- 38
2021-02-14 14:00:00 16.6 16 Sur 41 Sur 0 978.5 -- 37
2021-02-14 13:00:00 16.7 20 Sur 40 Sur 0 978.7 -- 36
2021-02-14 12:00:00 16.2 14 Sur 30 Sudeste 0 979 -- 39
2021-02-14 11:00:00 10.8 2 Sudeste 8 Sur 0 979 -- 72
2021-02-14 10:00:00 5.2 0 Calma 5 Sur 0 978.4 -- 92
2021-02-14 09:00:00 2.6 0 Calma 10 Sur 0 977.9 -- 93
2021-02-14 08:00:00 2.6 0 Calma 7 Este 0 977.2 -- 93
2021-02-14 07:00:00 3 0 Calma 6 Noroeste 0 976.8 -- 93
2021-02-14 06:00:00 2.5 2 Nordeste 5 Nordeste 0 976.7 -- 93
2021-02-14 05:00:00 3.6 0 Calma 5 Oeste 0 976.7 -- 91
2021-02-14 04:00:00 4.2 0 Calma 5 Este 0 977 -- 90
2021-02-14 03:00:00 4.6 2 Este 5 Noroeste 0 977.5 -- 89
2021-02-14 02:00:00 5.6 0 Calma 6 Nordeste 0 977.8 -- 88
2021-02-14 01:00:00 6.1 3 Nordeste 9 Nordeste 0 977.9 -- 86
2021-02-14 00:00:00 8.2 4 Oeste 6 Oeste 0 977.9 -- 75
2021-02-13 23:00:00 8.3 0 Calma 3 Noroeste 0 978.1 -- 76
2021-02-13 22:00:00 8.9 0 Calma 10 Este 0 977.7 -- 70
2021-02-13 21:00:00 10.7 3 Oeste 9 Noroeste 0 977.1 -- 59
2021-02-13 20:00:00 13.6 8 Noroeste 12 Noroeste 0 976.8 -- 48
2021-02-13 19:00:00 14.5 3 Norte 10 Oeste 0 976.4 -- 46
2021-02-13 18:00:00 16.2 7 Noroeste 18 Noroeste 0 976.3 -- 46
2021-02-13 17:00:00 16.4 3 Noroeste 14 Noroeste 0 976.3 -- 47
2021-02-13 16:00:00 16.4 4 Norte 20 Noroeste 0 976.6 -- 45
2021-02-13 15:00:00 16.1 5 Noroeste 12 Noroeste 0 976.4 -- 51
2021-02-13 14:00:00 15.1 0 Calma 10 Noroeste 0 976.9 -- 56
2021-02-13 13:00:00 14 3 Norte 11 Noroeste 0 977.8 -- 59
2021-02-13 08:00:00 3.7 0 Calma 4 Nordeste 0 977.4 0.7 93
2021-02-13 07:00:00 3.6 3 Nordeste 4 Este 0 977.1 0.4 93
2021-02-13 06:00:00 5.5 2 Oeste 5 Noroeste 0 976.8 0.1 90
2021-02-13 05:00:00 6 4 Oeste 6 Oeste 0 976.7 0.2 90
2021-02-13 04:00:00 6.3 0 Calma 7 Oeste 0 976.7 0.1 88
2021-02-13 03:00:00 6.8 0 Calma 8 Nordeste 0 976.7 0.3 85
2021-02-13 02:00:00 8.5 0 Calma 15 Noroeste 0 976.5 -0.1 79
2021-02-13 01:00:00 10 6 Noroeste 21 Noroeste 0 976.6 0.3 74
2021-02-13 00:00:00 10.7 7 Noroeste 18 Noroeste 0 976.4 0.4 70
2021-02-12 23:00:00 10.8 6 Noroeste 17 Noroeste 0 976.6 1 69
2021-02-12 22:00:00 11.2 5 Noroeste 14 Noroeste 0 976.3 1.3 70
2021-02-12 21:00:00 10.9 6 Noroeste 8 Noroeste 0 976 1.5 72
2021-02-12 20:00:00 12.4 0 Calma 13 Norte 0 975.6 1.2 66
2021-02-12 19:00:00 13.5 0 Calma 20 Noroeste 0 975 0.7 60
2021-02-12 18:00:00 14.8 12 Noroeste 23 Noroeste 0 974.5 -0.2 53
2021-02-12 17:00:00 15.4 11 Noroeste 26 Noroeste 0 974.4 -0.5 52
2021-02-12 16:00:00 15.6 12 Noroeste 31 Noroeste 0 974.3 -1.1 51
2021-02-12 15:00:00 15.7 15 Noroeste 31 Noroeste 0 974.7 -0.1 51
2021-02-12 14:00:00 15.4 12 Oeste 28 Noroeste 0 974.9 0.1 56
2021-02-12 13:00:00 15.1 15 Noroeste 30 Noroeste 0 975.4 1.2 60
2021-02-12 12:00:00 14.7 13 Noroeste 24 Noroeste 0 974.8 0.9 70
2021-02-12 11:00:00 13.1 6 Oeste 14 Noroeste 0 974.8 1.4 88
2021-02-12 10:00:00 12.7 5 Oeste 11 Oeste 0.1 974.2 1 93
2021-02-12 09:00:00 11.7 0 Calma 4 Oeste 0 973.9 -- 93
2021-02-12 08:00:00 11.8 0 Calma 7 Nordeste 0 973.4 -- 92
2021-02-12 07:00:00 11.7 3 Nordeste 6 Oeste 0 973.2 -- 91
2021-02-12 06:00:00 11.8 4 Noroeste 8 Oeste 0 973.2 -- 89
2021-02-12 05:00:00 11.9 0 Calma 11 Oeste 0 973.3 -- 90
2021-02-12 04:00:00 12 0 Calma 10 Norte 0 973.3 -- 88
2021-02-12 03:00:00 11.5 0 Calma 11 Noroeste 0 973.4 -- 88
2021-02-12 02:00:00 11.9 3 Noroeste 9 Noroeste 0 973 -- 89
2021-02-12 01:00:00 12.4 4 Noroeste 8 Noroeste 0 972.6 -- 91
2021-02-12 00:00:00 12.4 5 Noroeste 8 Noroeste 0 972.6 -- 89
2021-02-11 23:00:00 13 3 Nordeste 7 Nordeste 0 972.6 -- 87
2021-02-11 22:00:00 13.4 5 Nordeste 7 Nordeste 0 972.9 -- 86
2021-02-11 21:00:00 13.5 3 Nordeste 8 Nordeste 0 972.7 -- 85
2021-02-11 20:00:00 14.4 0 Calma 13 Noroeste 0 972.4 -- 80
2021-02-11 19:00:00 15 4 Noroeste 12 Noroeste 0 972.1 -- 77
2021-02-11 18:00:00 16 6 Noroeste 13 Oeste 0 971.6 -- 68
2021-02-11 17:00:00 15.8 6 Noroeste 16 Noroeste 0 971.5 -- 69
2021-02-11 16:00:00 16 5 Noroeste 15 Noroeste 0 971.5 -- 68
2021-02-11 15:00:00 15.6 4 Noroeste 12 Noroeste 0 971.5 -- 70
2021-02-11 14:00:00 15.1 5 Noroeste 12 Noroeste 0 972.4 -- 71
2021-02-11 13:00:00 14.4 3 Nordeste 12 Este 0 973 -- 76
2021-02-11 12:00:00 13.9 4 Nordeste 9 Nordeste 0 973.5 -- 80
2021-02-11 11:00:00 13 4 Nordeste 7 Nordeste 0 973.4 -- 88
2021-02-11 10:00:00 12.4 4 Nordeste -- -- -- 973.2 -- 94
2021-02-11 09:00:00 11.9 4 Nordeste 10 Nordeste 0 972.7 -- 94
2021-02-11 08:00:00 11.7 6 Nordeste 12 Nordeste 0 972.5 -- 94
2021-02-11 07:00:00 11.6 6 Nordeste 9 Nordeste 0.1 972.4 -- 94
2021-02-11 06:00:00 12 4 Nordeste 9 Nordeste 0.4 972.3 -- 94
2021-02-11 05:00:00 12 3 Nordeste 7 Nordeste 0.6 972.2 -- 94
2021-02-11 04:00:00 12.1 4 Nordeste 9 Nordeste 0 972.3 -- 93
2021-02-11 03:00:00 12.1 0 Calma 5 Nordeste 0 972.5 -- 92
2021-02-11 02:00:00 12.1 3 Nordeste 4 Nordeste 0 972.6 -- 91
2021-02-11 01:00:00 12 0 Calma 17 Oeste 0 972.5 -- 90
2021-02-11 00:00:00 13 5 Oeste 15 Sudoeste 0 972.1 -- 85
2021-02-10 23:00:00 12.9 3 Sudoeste 35 Oeste 0 971.9 -- 86
2021-02-10 22:00:00 13.1 17 Oeste 35 Oeste 0 970.9 -- 85
2021-02-10 21:00:00 12.7 2 Sudoeste 26 Oeste 0 970.9 -- 87
2021-02-10 20:00:00 12.7 12 Oeste 33 Oeste 0.1 970 -- 89
2021-02-10 19:00:00 13.3 12 Oeste 32 Oeste 0 969.5 -- 87
2021-02-10 18:00:00 13.9 14 Oeste 34 Oeste 0 968.7 -- 85
2021-02-10 17:00:00 14.4 10 Oeste 36 Oeste 0 968.2 -- 83
2021-02-10 16:00:00 15.1 15 Oeste 34 Sudoeste 0 968.1 -- 81
2021-02-10 15:00:00 14.9 10 Oeste 31 Oeste 0 968 -- 84
2021-02-10 14:00:00 14.4 12 Oeste 39 Oeste 0 968 -- 86
2021-02-10 13:00:00 13.8 8 Oeste 31 Oeste 0 968.4 -- 88
2021-02-10 12:00:00 13.7 12 Oeste 30 Oeste 0 968 -- 86
2021-02-10 11:00:00 12.7 10 Oeste 35 Sudoeste 0 967.1 -- 85
2021-02-10 10:00:00 12.3 8 Oeste 26 Oeste 0.1 966.6 -- 87
2021-02-10 09:00:00 11.9 4 Oeste 26 Oeste 0.2 966 -- 88
2021-02-10 08:00:00 12.1 8 Oeste 27 Oeste 0 964.9 -- 88
2021-02-10 07:00:00 11.6 5 Oeste 31 Oeste 0 964.7 -- 83
2021-02-10 06:00:00 11.3 8 Sudoeste 26 Sudoeste 0 964.8 -- 87
2021-02-10 05:00:00 10.5 3 Oeste 25 Oeste 0.4 965 -- 93
2021-02-10 04:00:00 10.6 9 Oeste 21 Oeste 0.7 965.1 -- 92
2021-02-10 03:00:00 11 9 Oeste 36 Oeste 0 965.2 -- 84
2021-02-10 02:00:00 11.5 14 Oeste 35 Oeste 0 965 -- 78
2021-02-10 01:00:00 11.4 8 Oeste 32 Oeste 0.1 964.8 -- 87
2021-02-10 00:00:00 11.2 9 Oeste 40 Oeste 0.2 964.6 -- 91
2021-02-09 23:00:00 11.5 10 Oeste 31 Oeste 2.5 964.3 -- 91
2021-02-09 22:00:00 12.2 9 Sudoeste 50 Oeste 0 963.8 -- 72
2021-02-09 21:00:00 11.8 15 Oeste 37 Oeste 0.3 963.2 -- 80
2021-02-09 20:00:00 11.6 7 Sudoeste 29 Oeste 0.6 963.3 -- 89
2021-02-09 19:00:00 11.4 6 Sudoeste 24 Sudoeste 0.2 963 -- 83
2021-02-09 18:00:00 12.3 6 Oeste 19 Oeste 0.6 962.5 -- 88
2021-02-09 17:00:00 12.5 6 Oeste 29 Sudoeste 0.8 962.2 -- 81
2021-02-09 16:00:00 14.9 12 Oeste 42 Oeste 0 962.2 -- 59
2021-02-09 15:00:00 15.5 12 Sudoeste 44 Sur 0 962.4 -- 59
2021-02-09 14:00:00 13.8 12 Oeste 32 Oeste 0 963.5 -- 66
2021-02-09 13:00:00 14.7 11 Sudoeste 37 Sudoeste 0 964.3 -- 59
2021-02-09 12:00:00 13.4 10 Sudoeste 37 Sudoeste 0 964.5 -- 60
2021-02-09 11:00:00 12.3 13 Sudoeste 36 Oeste 0 964.7 -- 63
2021-02-09 10:00:00 9.9 2 Sur 7 Sur 0 964.6 -- 78
2021-02-09 09:00:00 8.5 0 Calma 5 Este 0 964.5 -- 78
2021-02-09 08:00:00 8.2 0 Calma 6 Este 0 964.9 -- 80
2021-02-09 07:00:00 8.1 2 Sudeste 12 Sudoeste 0 964.8 -- 82
2021-02-09 06:00:00 8.2 4 Oeste 7 Oeste 0 965.2 -- 88
2021-02-09 05:00:00 8.7 0 Calma 8 Sudeste 0 964.7 -- 87
2021-02-09 04:00:00 9.2 0 Calma 9 Oeste 0 965.1 -- 86
2021-02-09 03:00:00 9.3 3 Noroeste 6 Oeste 0 965.6 -- 85
2021-02-09 02:00:00 9.2 2 Oeste 8 Oeste 0 966.1 -- 87
2021-02-09 01:00:00 9.6 4 Oeste 12 Oeste 0 966.1 -- 84
2021-02-09 00:00:00 10.2 4 Oeste 16 Oeste 0 966.2 -- 81
2021-02-08 23:00:00 10.4 6 Oeste 18 Sudoeste 0 966.3 -- 79
2021-02-08 22:00:00 10.3 7 Oeste 19 Oeste 0 965.8 -- 86
2021-02-08 21:00:00 10.2 5 Oeste 31 Sudoeste 0.1 965.5 -- 85
2021-02-08 20:00:00 11.5 12 Oeste 36 Sudoeste 0 964.9 -- 69
2021-02-08 19:00:00 11.9 8 Oeste 26 Sudoeste 0 964.1 -- 64
2021-02-08 18:00:00 12.8 10 Oeste 26 Oeste 0 963.3 -- 59
2021-02-08 17:00:00 12.8 10 Oeste 36 Oeste 0 962.7 -- 58
2021-02-08 16:00:00 13.2 12 Oeste 42 Oeste 0 962.4 -- 53
2021-02-08 15:00:00 13.7 14 Oeste 37 Sudoeste 0 962 -- 51
2021-02-08 14:00:00 13 13 Oeste 38 Oeste 0 962.7 -- 57
2021-02-08 13:00:00 11.8 17 Oeste 40 Oeste 0 963.3 -- 61
2021-02-08 12:00:00 10.9 13 Oeste 29 Oeste 0 963.7 -- 74
2021-02-08 11:00:00 10.3 10 Oeste 24 Noroeste 0 963.4 -- 81
2021-02-08 10:00:00 9.5 8 Oeste 20 Oeste 0 963.1 -- 87
2021-02-08 09:00:00 8.7 6 Oeste 21 Sudoeste 0.1 962.2 -- 92
2021-02-08 08:00:00 8.8 11 Oeste 36 Noroeste 7.2 961.4 -- 93
2021-02-08 07:00:00 10 6 Sudoeste 21 Sudoeste 2.4 959.8 -- 92
2021-02-08 06:00:00 9.9 7 Sudoeste 20 Sudoeste 1.8 959.9 -- 89
2021-02-08 05:00:00 11.2 7 Sudoeste 24 Sur 0 960.8 -- 69
2021-02-08 04:00:00 10.8 4 Sudoeste 19 Sudoeste 0 962.1 -- 72
2021-02-08 03:00:00 10.3 4 Sudoeste 15 Sur 0 962.6 -- 77
2021-02-08 02:00:00 9.7 4 Oeste 15 Sudoeste 0 963.8 -- 80
2021-02-08 01:00:00 9.3 4 Sudoeste 17 Oeste 0 964.7 -- 82
2021-02-08 00:00:00 9.1 5 Oeste 15 Oeste 0 965.2 -- 81
2021-02-07 23:00:00 8.7 2 Nordeste 4 Nordeste 0 965.7 -- 75
2021-02-07 22:00:00 8.6 0 Calma 5 Sudeste 0 965.8 -- 72
2021-02-07 21:00:00 8.5 0 Calma 8 Sur 0 966.1 -- 72
2021-02-07 20:00:00 8.6 3 Oeste 14 Oeste 0 965.7 -- 69
2021-02-07 19:00:00 8.7 4 Oeste 31 Oeste 0 965.6 -- 68
2021-02-07 18:00:00 8.9 13 Oeste 36 Oeste 0 965.1 -- 62
2021-02-07 17:00:00 9.6 17 Oeste 38 Oeste 0 964.5 -- 59
2021-02-07 16:00:00 10.7 15 Oeste 38 Oeste 0 963.9 -- 60
2021-02-07 15:00:00 11.4 12 Oeste 38 Oeste 0 963.6 -- 63
2021-02-07 14:00:00 10.4 18 Oeste 35 Oeste 0 963.9 -- 66
2021-02-07 13:00:00 9.8 10 Oeste 30 Sudoeste 0 964 -- 82
2021-02-07 12:00:00 9.7 8 Oeste 26 Oeste 0 963.8 -- 81
2021-02-07 11:00:00 9.4 6 Oeste 18 Noroeste 0 963.4 -- 86
2021-02-07 10:00:00 8.6 9 Oeste 19 Oeste 0 962.9 -- 88
2021-02-07 09:00:00 8.3 6 Oeste 14 Oeste 0 961.8 -- 90
2021-02-07 08:00:00 8.2 5 Oeste 13 Noroeste 0 961.1 -- 90
2021-02-07 07:00:00 8 0 Calma 3 Norte 0 960.6 -- 92
2021-02-07 06:00:00 7.9 0 Calma 4 Oeste 0.1 960.4 -- 92
2021-02-07 05:00:00 7.8 0 Calma 8 Oeste 0 960.2 -- 92
2021-02-07 04:00:00 7.7 3 Oeste 18 Oeste 0.1 960.3 -- 92
2021-02-07 03:00:00 8.1 3 Oeste 9 Oeste 0 960.1 -- 86
2021-02-07 02:00:00 8.3 3 Oeste 7 Sudoeste 0 960.1 -- 84
2021-02-07 01:00:00 8.5 3 Oeste 14 Oeste 0 960.1 -- 83
2021-02-07 00:00:00 8.4 5 Oeste 18 Oeste 0 959.9 -- 86
2021-02-06 23:00:00 8.6 4 Oeste 15 Sudoeste 0.1 959.9 -- 87
2021-02-06 22:00:00 9.3 8 Oeste 20 Oeste 0 959.3 -- 83
2021-02-06 21:00:00 9.5 5 Oeste 19 Sudoeste 0 959 -- 84
2021-02-06 20:00:00 9.9 4 Sudoeste 15 Sudoeste 0 958.4 -- 75
2021-02-06 19:00:00 10.7 4 Oeste 22 Sudoeste 0 957.7 -- 69
2021-02-06 18:00:00 11 9 Oeste 31 Sudoeste 0 957.2 -- 67
2021-02-06 17:00:00 11.8 14 Oeste 30 Sudoeste 0 956.6 -- 66
2021-02-06 16:00:00 13.2 8 Sudoeste 23 Oeste 0 956.3 -- 59
2021-02-06 15:00:00 12.6 8 Sudoeste 40 Sudoeste 0 956.4 -- 57
2021-02-06 14:00:00 14 10 Sudoeste 31 Sudoeste 0 956.3 -- 52
2021-02-06 13:00:00 13.5 9 Sudoeste 28 Sudoeste 0 957 -- 57
2021-02-06 12:00:00 12.8 11 Sudoeste 36 Sudoeste 0 957.2 -- 59
2021-02-06 11:00:00 11.8 8 Oeste 22 Oeste 0 957.1 -- 61
2021-02-06 10:00:00 11 3 Sudoeste 14 Sudoeste 0 957.1 -- 65
2021-02-06 09:00:00 9.3 6 Oeste 14 Oeste 0 956.6 -- 75
2021-02-06 08:00:00 9.2 3 Oeste 10 Oeste 0 956.3 -- 77
2021-02-06 07:00:00 9.2 6 Oeste 13 Noroeste 0 955.8 -- 82
2021-02-06 06:00:00 9.5 5 Oeste 19 Sudoeste 0 955.8 -- 84
2021-02-06 05:00:00 9.9 4 Sudoeste 15 Sur 0 955.3 -- 83
2021-02-06 04:00:00 10 9 Sur 31 Sur 0 955.2 -- 82
2021-02-06 03:00:00 10.2 11 Sur 31 Sur 0 955.3 -- 75
2021-02-06 02:00:00 11 9 Sur 31 Sudeste 0 955.3 -- 69
2021-02-06 01:00:00 10.5 12 Sudeste 26 Sudeste 0 955.5 -- 74
2021-02-06 00:00:00 10.7 10 Sudeste 25 Sur 0 955.9 -- 72
2021-02-05 23:00:00 10.4 7 Sudeste 20 Sudeste 0 955.9 -- 72
2021-02-05 22:00:00 10.5 11 Sur 19 Sur 0 955.9 -- 72
2021-02-05 21:00:00 10.1 3 Sudeste 11 Este 0 955.8 -- 78
2021-02-05 20:00:00 10.6 4 Oeste 8 Noroeste 0 955.6 -- 84
2021-02-05 19:00:00 11.4 0 Calma 11 Noroeste 1.9 954.9 -- 87
2021-02-05 18:00:00 12.1 5 Noroeste 15 Sudoeste 0.4 954.7 -- 76
2021-02-05 17:00:00 12.7 7 Oeste 25 Sudoeste 0 954.8 -- 64
2021-02-05 16:00:00 15.9 6 Sur 28 Sur 0 954.1 -- 54
2021-02-05 15:00:00 15.8 10 Sudeste 23 Sudeste 0 954.1 -- 56
2021-02-05 14:00:00 15.5 9 Sur 20 Sur 0 955 -- 58
2021-02-05 13:00:00 15.4 5 Sur 20 Sur 0 956.3 -- 59
2021-02-05 12:00:00 15.4 4 Sur 18 Sur 0 956.3 -- 57
2021-02-05 11:00:00 15.2 8 Sur 21 Sur 0 956.2 -- 54
2021-02-05 10:00:00 14.7 5 Sudeste 30 Sur 0 956 -- 56
2021-02-05 09:00:00 14.5 15 Sudeste 31 Sur 0 955.1 -- 53
2021-02-05 08:00:00 13.9 5 Sudeste 45 Nordeste 0 954.6 -- 57
2021-02-05 07:00:00 14.3 11 Sur 48 Sur 0 954.5 -- 53
2021-02-05 06:00:00 14.4 16 Sur 40 Sur 0 954.7 -- 53
2021-02-05 05:00:00 13.5 11 Sudeste 39 Sudeste 0 955.2 -- 59
2021-02-05 04:00:00 13.4 9 Sudeste 23 Sudeste 0 955.9 -- 60
2021-02-05 03:00:00 11.4 0 Calma 10 Nordeste 0 956.6 -- 72
2021-02-05 02:00:00 11.9 0 Calma 7 Nordeste 0 956.9 -- 75
2021-02-05 01:00:00 11.3 5 Oeste 12 Oeste 0 957.7 -- 83
2021-02-05 00:00:00 11.7 0 Calma 11 Oeste 0 958.4 -- 84
2021-02-04 23:00:00 11.6 2 Noroeste 8 Oeste 0 958.4 -- 86
2021-02-04 22:00:00 12.1 0 Calma 5 Este 0 958.9 -- 83
2021-02-04 21:00:00 12.6 2 Noroeste 7 Noroeste 0 959.5 -- 80
2021-02-04 20:00:00 13.4 0 Calma 10 Nordeste 0 959.8 -- 77
2021-02-04 19:00:00 14.5 2 Nordeste 13 Sudeste 0 959.9 -- 66
2021-02-04 18:00:00 16.4 7 Este 31 Sudeste 0 959.9 -- 51
2021-02-04 17:00:00 17.9 13 Sudeste 24 Sudeste 0 959.8 -- 45
2021-02-04 16:00:00 18.1 3 Sudoeste 19 Sudeste 0 960.1 -- 46
2021-02-04 15:00:00 18.1 6 Sur 23 Sudoeste 0 960.2 -- 45
2021-02-04 14:00:00 16.5 7 Sudoeste 35 Sudoeste 0 960.8 -- 50
2021-02-04 13:00:00 16.8 7 Sudoeste 39 Sudeste 0 961.4 -- 48
2021-02-04 12:00:00 16.1 19 Sudeste 39 Sur 0 961.6 -- 48
2021-02-04 11:00:00 14.8 14 Sur 28 Sur 0 962.2 -- 55
2021-02-04 10:00:00 8.5 6 Nordeste 13 Noroeste 0 962.7 -- 93
2021-02-04 09:00:00 7.6 2 Sudoeste 11 Oeste 0 962.8 -- 93
2021-02-04 08:00:00 7.8 6 Noroeste 10 Oeste 0 962.9 -- 93
2021-02-04 07:00:00 8.2 0 Calma 10 Nordeste 0 963 -- 92
2021-02-04 06:00:00 8.8 2 Nordeste 3 Nordeste 0 963.5 -- 89
2021-02-04 05:00:00 9.2 0 Calma 3 Nordeste 0 963.8 -- 89
2021-02-04 04:00:00 9.3 2 Nordeste 10 Nordeste 0 964.4 -- 89
2021-02-04 03:00:00 9.5 5 Nordeste 9 Norte 0 965 -- 88
2021-02-04 02:00:00 9.3 5 Nordeste 8 Nordeste 0 965.7 -- 90
2021-02-04 01:00:00 9.4 3 Nordeste 6 Este 0 966 -- 90
2021-02-04 00:00:00 9.8 3 Noroeste 5 Noroeste 0 966.5 -- 87
2021-02-03 23:00:00 10.8 4 Nordeste 7 Nordeste 0 966.5 -- 84
2021-02-03 22:00:00 11.4 5 Nordeste 8 Nordeste 0 966.6 -- 81
2021-02-03 21:00:00 11.6 2 Nordeste 6 Nordeste 0 966.8 -- 80
2021-02-03 20:00:00 12.3 0 Calma 12 Noroeste 0 966.9 -- 75
2021-02-03 19:00:00 12.9 8 Noroeste 13 Noroeste 0 966.7 -- 71
2021-02-03 18:00:00 14.6 3 Oeste 7 Noroeste 0 966.4 -- 62
2021-02-03 17:00:00 15.1 4 Noroeste 7 Noroeste 0 966.3 -- 57
2021-02-03 16:00:00 15 0 Calma 13 Nordeste 0 966.9 -- 58
2021-02-03 15:00:00 14.6 3 Nordeste 12 Este 0 967.2 -- 60
2021-02-03 14:00:00 13.6 2 Este 12 Este 0 968.2 -- 65
2021-02-03 13:00:00 13 5 Nordeste 14 Nordeste 0 969 -- 69
2021-02-03 12:00:00 11.9 5 Nordeste 13 Este 0 969.7 -- 71
2021-02-03 11:00:00 10 4 Este 6 Este 0 970 -- 88
2021-02-03 10:00:00 8.5 0 Calma 4 Oeste 0 970 -- 94
2021-02-03 09:00:00 7.7 4 Nordeste 7 Nordeste 0 969.9 -- 94
2021-02-03 08:00:00 6.8 0 Calma 6 Nordeste 0 969.7 -- 95
2021-02-03 07:00:00 6.4 0 Calma 4 Este 0 969.2 -- 95
2021-02-03 06:00:00 6.2 0 Calma 3 Oeste 0 969.1 -- 95
2021-02-03 05:00:00 6.1 0 Calma 6 Nordeste 0 969.3 -- 95
2021-02-03 04:00:00 5.5 4 Nordeste 6 Nordeste 0 970 -- 95
2021-02-03 03:00:00 5.7 0 Calma 3 Nordeste 0 970.1 -- 94
2021-02-03 02:00:00 7.2 0 Calma 5 Noroeste 0 970.2 -- 92
2021-02-03 01:00:00 7.6 0 Calma 4 Nordeste 0 970.5 -- 91
2021-02-03 00:00:00 8.8 0 Calma 4 Sudeste 0 970.6 -- 90
2021-02-02 23:00:00 9.2 0 Calma 14 Noroeste 0 970.7 -- 88
2021-02-02 22:00:00 10.7 3 Nordeste 7 Norte 0 970.2 -- 85
2021-02-02 21:00:00 11.1 0 Calma 8 Nordeste 0 970.3 -- 81
2021-02-02 20:00:00 12.2 4 Noroeste 14 Noroeste 0 970.5 -- 76
2021-02-02 19:00:00 13.6 0 Calma 13 Norte 0 970.1 -- 70
2021-02-02 18:00:00 15.2 6 Noroeste 13 Noroeste 0 969.4 -- 64
2021-02-02 17:00:00 15.4 2 Norte 14 Noroeste 0 969.3 -- 64
2021-02-02 16:00:00 15.3 3 Noroeste 14 Oeste 0 969.6 -- 64
2021-02-02 15:00:00 15.1 3 Nordeste 14 Noroeste 0 970.3 -- 65
2021-02-02 14:00:00 14.4 5 Nordeste 14 Nordeste 0 971.6 -- 69
2021-02-02 13:00:00 12.6 2 Noroeste 14 Noroeste 0 972.6 -- 73
2021-02-02 12:00:00 12.1 6 Noroeste 12 Noroeste 0 972.9 -- 76
2021-02-02 11:00:00 11.3 4 Nordeste 12 Nordeste 0 973 -- 82
2021-02-02 10:00:00 9.6 7 Nordeste 13 Nordeste 0 972.8 -- 89
2021-02-02 09:00:00 9.5 6 Nordeste -- -- -- 972.9 -- 89
2021-02-02 08:00:00 10.3 2 Nordeste 8 Nordeste 0 972.7 -- 89
2021-02-02 07:00:00 10.9 2 Norte 11 Nordeste 0 972.7 -- 87
2021-02-02 06:00:00 10.9 4 Nordeste 9 Nordeste 0 972.6 -- 87
2021-02-02 05:00:00 10.9 3 Nordeste 8 Noroeste 0 972.8 -- 87
2021-02-02 04:00:00 11 0 Calma 6 Nordeste 0 973 -- 86
2021-02-02 03:00:00 10.9 2 Noroeste 10 Noroeste 0 973 -- 87
2021-02-02 02:00:00 10.8 0 Calma 9 Nordeste 0 973.2 -- 87
2021-02-02 01:00:00 9.9 0 Calma 7 Nordeste 0 973.2 -- 88
2021-02-02 00:00:00 10.3 3 Nordeste 12 Nordeste 0 973.2 -- 87
2021-02-01 23:00:00 10 5 Nordeste 11 Nordeste 0 973.1 -- 86
2021-02-01 22:00:00 10.4 0 Calma 12 Noroeste 0 973.4 -- 83
2021-02-01 21:00:00 10.6 5 Noroeste 18 Noroeste 0 973.3 -- 83
2021-02-01 20:00:00 11.5 3 Norte 12 Noroeste 0 973.3 -- 80
2021-02-01 19:00:00 12.3 4 Noroeste 24 Oeste 0 972.6 -- 73
2021-02-01 18:00:00 14.5 10 Oeste 23 Oeste 0 972.2 -- 65
2021-02-01 17:00:00 15.2 12 Oeste 23 Oeste 0 972.2 -- 62
2021-02-01 16:00:00 15.2 10 Noroeste 26 Oeste 0 972.2 -- 64
2021-02-01 15:00:00 14.8 13 Oeste 31 Oeste 0 972.3 -- 60
2021-02-01 14:00:00 15.1 14 Oeste 31 Oeste 0 972.7 -- 65
2021-02-01 13:00:00 14.8 14 Noroeste 29 Oeste 0 972.8 -- 68
2021-02-01 12:00:00 13.7 10 Oeste 23 Noroeste 0 973.1 -- 73
2021-02-01 11:00:00 12.6 9 Noroeste 19 Noroeste 0 973.2 -- 83
2021-02-01 10:00:00 12.3 8 Noroeste 17 Noroeste 0 972.8 -- 85
2021-02-01 09:00:00 12.1 5 Noroeste 20 Noroeste 0 972.3 -- 86
2021-02-01 08:00:00 12.3 3 Norte 15 Nordeste 0 971.7 -- 87
2021-02-01 07:00:00 12 3 Norte 16 Oeste 0 971.1 -- 87
2021-02-01 06:00:00 12.2 8 Noroeste 23 Noroeste 0 971.2 -- 88
2021-02-01 05:00:00 12.6 11 Oeste 29 Oeste 0.1 971.3 -- 90
2021-02-01 04:00:00 12.6 10 Oeste 27 Oeste 0.5 971.1 -- 93
2021-02-01 03:00:00 12.5 5 Oeste 12 Oeste 0.3 971.6 -- 93
2021-02-01 02:00:00 12.4 5 Oeste 21 Oeste 0.2 972 -- 92
2021-02-01 01:00:00 12.2 8 Oeste 17 Oeste 0.3 971.9 -- 92
2021-02-01 00:00:00 12.3 9 Oeste 35 Oeste 0 971.9 -- 89
2021-01-31 23:00:00 12.5 17 Oeste 34 Oeste 0 971.6 -- 86
2021-01-31 22:00:00 12.1 15 Oeste 37 Oeste 0 971.4 -- 84
2021-01-31 21:00:00 12.2 17 Oeste 37 Oeste 0 971.2 -- 80
2021-01-31 20:00:00 12.5 10 Oeste 27 Oeste 0 971.2 -- 76
2021-01-31 19:00:00 12.9 14 Oeste 32 Noroeste 0 971.5 -- 72
2021-01-31 18:00:00 13.5 12 Oeste 30 Oeste 0 971.2 -- 69
2021-01-31 17:00:00 13.9 14 Noroeste 32 Oeste 0 971.5 -- 64
2021-01-31 16:00:00 14.4 15 Noroeste 33 Noroeste 0 971.5 -- 60
2021-01-31 15:00:00 14.4 15 Oeste 35 Oeste 0 971.8 -- 59
2021-01-31 14:00:00 12.9 15 Oeste 35 Noroeste 0 972.7 -- 72
2021-01-31 13:00:00 11.8 15 Noroeste 71 Noroeste 0 973.4 -- 74
2021-01-31 12:00:00 11.2 14 Noroeste 25 Noroeste 0 973.9 -- 81
2021-01-31 11:00:00 10.3 9 Noroeste 21 Oeste 0 974.1 -- 86
2021-01-31 10:00:00 9.8 9 Noroeste 21 Oeste 0 973.4 -- 86
2021-01-31 09:00:00 9.2 7 Noroeste 18 Noroeste 0 973 -- 82
2021-01-31 08:00:00 8.8 7 Noroeste 21 Oeste 0 972.7 -- 83
2021-01-31 07:00:00 8.7 10 Oeste 26 Oeste 0 972.6 -- 83
2021-01-31 06:00:00 8.1 8 Oeste 19 Oeste 0 971.4 -- 82
2021-01-31 05:00:00 8.4 6 Noroeste 12 Oeste 0 971.8 -- 82
2021-01-31 04:00:00 8.5 3 Noroeste 22 Oeste 0 971.3 -- 82
2021-01-31 03:00:00 9 9 Oeste 28 Oeste 0 971.2 -- 82
2021-01-31 02:00:00 9.1 13 Oeste 24 Noroeste 0 971.4 -- 77
2021-01-31 01:00:00 8.9 8 Oeste 17 Oeste 0 971.7 -- 75
2021-01-31 00:00:00 9.6 10 Oeste 24 Noroeste 0 971.2 -- 74
2021-01-30 23:00:00 10.3 11 Oeste 32 Oeste 0 971.8 -- 71
2021-01-30 22:00:00 10.9 13 Oeste 37 Oeste 0 971.2 -- 74
2021-01-30 21:00:00 11.3 17 Oeste 34 Oeste 0 971 -- 76
2021-01-30 20:00:00 11.9 11 Oeste 22 Noroeste 0 970.7 -- 69
2021-01-30 19:00:00 12 12 Oeste 30 Oeste 0 970.2 -- 66
2021-01-30 18:00:00 13 18 Oeste 41 Noroeste 0 969.3 -- 60
2021-01-30 17:00:00 14.2 21 Oeste 43 Oeste 0 969.7 -- 55
2021-01-30 16:00:00 14.3 15 Oeste 36 Oeste 0 969.7 -- 67
2021-01-30 15:00:00 13.6 14 Oeste 36 Noroeste 0 970.2 -- 72
2021-01-30 14:00:00 13.6 15 Noroeste 35 Oeste 0 970.6 -- 81
2021-01-30 13:00:00 13.7 16 Noroeste 37 Oeste 0 971.8 -- 82
2021-01-30 12:00:00 13.3 13 Oeste 33 Oeste 0 971.6 -- 83
2021-01-30 11:00:00 12.7 3 Oeste 14 Oeste 0 971.7 -- 83
2021-01-30 10:00:00 11.3 2 Este 6 Este 0 971.9 -- 89
2021-01-30 09:00:00 10.8 2 Nordeste 5 Nordeste 0 972.2 -- 91
2021-01-30 08:00:00 10.9 3 Oeste 25 Noroeste 0 972.7 -- 87
2021-01-30 07:00:00 11.3 11 Noroeste 25 Noroeste 0 972.5 -- 82
2021-01-30 06:00:00 11 7 Noroeste 17 Noroeste 0 972.2 -- 82
2021-01-30 05:00:00 11 4 Noroeste 9 Noroeste 0 972.1 -- 84
2021-01-30 04:00:00 11.2 0 Calma 6 Nordeste 0 971.9 -- 86
2021-01-30 03:00:00 11.1 4 Nordeste 14 Noroeste 0 973 -- 87
2021-01-30 02:00:00 11.3 3 Noroeste 12 Noroeste 0 974.2 -- 87
2021-01-30 01:00:00 11.4 6 Noroeste 10 Noroeste 0 974.4 -- 88
2021-01-30 00:00:00 11.7 0 Calma 8 Noroeste 0 974.9 -- 88
2021-01-29 23:00:00 11.6 0 Calma 8 Nordeste 0 974.9 -- 92
2021-01-29 22:00:00 11.5 4 Nordeste 8 Nordeste 0 974.3 -- 93
2021-01-29 21:00:00 11.8 0 Calma 10 Noroeste 0 974.4 -- 93
2021-01-29 20:00:00 12.1 4 Noroeste 12 Noroeste 0 974.3 -- 92
2021-01-29 19:00:00 12.6 4 Noroeste 27 Noroeste 0 974.5 -- 90
2021-01-29 18:00:00 13.5 16 Noroeste 26 Noroeste 0 973.6 -- 86
2021-01-29 17:00:00 18.3 2 Norte 12 Noroeste 0 973.3 -- 63
2021-01-29 16:00:00 17.9 4 Noroeste 12 Noroeste 0 973.5 -- 64
2021-01-29 15:00:00 17.1 3 Norte 10 Nordeste 0 974.1 -- 66
2021-01-29 14:00:00 16.6 4 Nordeste 10 Norte 0 974.8 -- 70
2021-01-29 13:00:00 15.5 3 Nordeste 13 Nordeste 0 975.4 -- 74
2021-01-29 12:00:00 14.4 3 Norte 13 Nordeste 0 976 -- 77
2021-01-29 11:00:00 10.9 0 Calma 6 Este 0 975.5 -- 89
2021-01-29 10:00:00 7.8 0 Calma 4 Este 0 974.8 -- 94
2021-01-29 09:00:00 5.2 0 Calma 6 Noroeste 0.2 975 -- 94
2021-01-29 08:00:00 6.9 4 Oeste 10 Noroeste 0 974.1 -- 93
2021-01-29 07:00:00 6.5 0 Calma 13 Noroeste 0 974.2 -- 93
2021-01-29 06:00:00 7.5 0 Calma 5 Noroeste 0 973.8 -- 93
2021-01-29 05:00:00 8.8 3 Oeste 6 Oeste 0 974.3 -- 93
2021-01-29 04:00:00 9.4 3 Nordeste 7 Nordeste 0 974.8 -- 94
2021-01-29 03:00:00 10 0 Calma 3 Oeste 0 975.5 -- 92
2021-01-29 02:00:00 10.4 0 Calma 2 Nordeste 0 975.2 -- 90
2021-01-29 01:00:00 10.9 0 Calma 4 Nordeste 0 975.6 -- 91
2021-01-29 00:00:00 12 0 Calma 5 Nordeste 0 975.4 -- 89
2021-01-28 23:00:00 13 0 Calma 3 Nordeste 0 975.1 -- 87
2021-01-28 22:00:00 14.1 0 Calma 8 Noroeste 0 975.2 -- 84
2021-01-28 21:00:00 15.3 0 Calma 12 Noroeste 0 975 -- 72
2021-01-28 20:00:00 17.1 6 Noroeste 10 Noroeste 0 974.9 -- 60
2021-01-28 19:00:00 18.8 2 Sudoeste 6 Sudoeste 0 974.4 -- 56
2021-01-28 18:00:00 21.4 3 Sur 9 Sudeste 0 974.4 -- 45
2021-01-28 17:00:00 22.6 4 Sudeste 9 Sudeste 0 974.4 -- 40
2021-01-28 16:00:00 22.3 2 Este 7 Sudeste 0 974.4 -- 43
2021-01-28 15:00:00 21.5 0 Calma 7 Sudoeste 0 974.7 -- 46
2021-01-28 14:00:00 19.4 0 Calma 5 Este 0 975.3 -- 60
2021-01-28 13:00:00 16.7 0 Calma 4 Oeste 0 976.2 -- 75
2021-01-28 12:00:00 12.1 0 Calma 5 Sudeste 0 977 -- 93
2021-01-28 11:00:00 9.2 2 Este 5 Este 0 977 -- 94
2021-01-28 10:00:00 7.3 0 Calma 2 Este 0 976.8 -- 94
2021-01-28 09:00:00 6.7 0 Calma 4 Oeste 0 976.3 -- 94
2021-01-28 08:00:00 7.2 0 Calma 5 Sudoeste 0 976.1 -- 94
2021-01-28 07:00:00 7.9 0 Calma 4 Noroeste 0.1 976 -- 94
2021-01-28 06:00:00 8.1 2 Oeste 5 Noroeste 0 975.8 -- 94
2021-01-28 05:00:00 9.3 3 Nordeste 4 Nordeste 0 976.3 -- 94
2021-01-28 04:00:00 8 0 Calma -- -- 0.1 976.7 -- 94
2021-01-28 03:00:00 8.8 0 Calma 5 Sur 0 976.6 -- 94
2021-01-28 02:00:00 8.4 0 Calma 6 Noroeste 0 976.7 -- 93
2021-01-28 01:00:00 10.8 0 Calma 3 Oeste 0 977.3 -- 92
2021-01-28 00:00:00 11 0 Calma 5 Nordeste 0 977.8 -- 92
2021-01-27 23:00:00 10.9 3 Noroeste 6 Nordeste 0 978 -- 89
2021-01-27 22:00:00 12.7 0 Calma 5 Nordeste 0 977.9 -- 88
2021-01-27 21:00:00 13.4 2 Noroeste 13 Noroeste 0 978.1 -- 86
2021-01-27 20:00:00 14 8 Noroeste 17 Noroeste 0 977.5 -- 83
2021-01-27 19:00:00 15.1 3 Noroeste 17 Noroeste 0 977.3 -- 76
2021-01-27 18:00:00 16.1 6 Noroeste 20 Noroeste 0 976.7 -- 72
2021-01-27 17:00:00 16.8 2 Norte 21 Noroeste 0 976.6 -- 68
2021-01-27 16:00:00 17 4 Noroeste 24 Noroeste 0 976.9 -- 69
2021-01-27 15:00:00 17.6 4 Noroeste 19 Oeste 0 976.8 -- 70
2021-01-27 14:00:00 16.5 4 Norte 15 Noroeste 0 977.6 -- 74
2021-01-27 13:00:00 16.2 2 Norte 10 Norte 0 978.2 -- 78
2021-01-27 12:00:00 14.6 0 Calma 10 Nordeste 0 978.7 -- 88
2021-01-27 11:00:00 14.2 2 Nordeste 9 Este 0 978.3 -- 93
2021-01-27 10:00:00 13.7 4 Oeste 8 Noroeste 0 977.7 -- 93
2021-01-27 09:00:00 13.4 3 Noroeste 11 Noroeste 0 977.4 -- 93
2021-01-27 08:00:00 13.5 5 Noroeste 7 Noroeste 0 977.2 -- 93
2021-01-27 07:00:00 13.6 0 Calma 6 Norte 0 977.1 -- 93
2021-01-27 06:00:00 13.4 0 Calma 2 Sudeste 0.1 976.8 -- 93
2021-01-27 05:00:00 13.8 0 Calma 6 Noroeste 0.2 977.4 -- 93
2021-01-27 04:00:00 13.7 0 Calma 6 Noroeste 0 977.7 -- 93
2021-01-27 03:00:00 13.7 0 Calma 3 Oeste 0 977.8 -- 93
2021-01-27 02:00:00 13.8 0 Calma 5 Noroeste 0 977.8 -- 93
2021-01-27 01:00:00 14 0 Calma 5 Nordeste 0.1 978.3 -- 93
2021-01-27 00:00:00 13.9 0 Calma 7 Noroeste 0 978.6 -- 93
2021-01-26 23:00:00 14.1 2 Norte 11 Noroeste 0 978.4 -- 93
2021-01-26 22:00:00 14.1 3 Noroeste 10 Noroeste 0.1 978.3 -- 93
2021-01-26 21:00:00 14.2 3 Noroeste 14 Noroeste 0.1 978.1 -- 93
2021-01-26 20:00:00 14.4 2 Noroeste 9 Noroeste 0.1 977.8 -- 93
2021-01-26 19:00:00 14.5 2 Norte 13 Noroeste 0 977.5 -- 93
2021-01-26 18:00:00 14.8 4 Noroeste 15 Noroeste 0.1 976.9 -- 92
2021-01-26 17:00:00 14.8 5 Noroeste 19 Oeste 0.1 976.6 -- 89
2021-01-26 16:00:00 15.2 7 Noroeste 16 Noroeste 0 976.4 -- 82
2021-01-26 15:00:00 15.3 7 Noroeste 18 Noroeste 0 976.7 -- 79
2021-01-26 14:00:00 15.5 5 Noroeste 22 Oeste 0 977 -- 78
2021-01-26 13:00:00 15 11 Noroeste 19 Noroeste 0 977.6 -- 81
2021-01-26 12:00:00 13.6 6 Noroeste 13 Noroeste 0 978.3 -- 89
2021-01-26 11:00:00 12.6 0 Calma 5 Sur 0 978.2 -- 92
2021-01-26 10:00:00 12.4 0 Calma 4 Noroeste 0 977.2 -- 90
2021-01-26 09:00:00 12.2 0 Calma 5 Noroeste 0 976.6 -- 89
2021-01-26 08:00:00 12 0 Calma 2 Sudoeste 0 976.1 -- 89
2021-01-26 07:00:00 11.9 0 Calma 12 Oeste 0 975.6 -- 88
2021-01-26 06:00:00 12 6 Oeste 20 Noroeste 0 975.2 -- 88
2021-01-26 05:00:00 12.4 9 Noroeste 21 Oeste 0 975.2 -- 85
2021-01-26 04:00:00 12.7 9 Noroeste 18 Noroeste 0 975 -- 82
2021-01-26 03:00:00 12.7 8 Oeste 14 Oeste 0 974.6 -- 84
2021-01-26 02:00:00 12.8 7 Oeste 17 Oeste 0 973.9 -- 86
2021-01-26 01:00:00 13.1 5 Oeste 24 Oeste 0 973.9 -- 85
2021-01-26 00:00:00 13.1 9 Oeste 22 Oeste 0 973.6 -- 82
2021-01-25 23:00:00 13.2 6 Oeste 17 Oeste 0 973.4 -- 81
2021-01-25 22:00:00 13.3 7 Oeste 18 Oeste 0 972.6 -- 80
2021-01-25 21:00:00 13.5 6 Oeste 22 Oeste 0 972.1 -- 81
2021-01-25 20:00:00 13.9 7 Noroeste 20 Oeste 0 971.9 -- 81
2021-01-25 19:00:00 14 6 Oeste 24 Oeste 0 970.7 -- 80
2021-01-25 18:00:00 14.4 10 Oeste 28 Oeste 0 970.2 -- 77
2021-01-25 17:00:00 14.4 14 Oeste 36 Oeste 0.1 969.8 -- 84
2021-01-25 16:00:00 16.1 14 Oeste 50 Oeste 0 968.9 -- 72
2021-01-25 15:00:00 15.2 10 Oeste 30 Oeste 0 969.3 -- 83
2021-01-25 14:00:00 15.2 13 Oeste 31 Sudoeste 0 969.6 -- 79
2021-01-25 13:00:00 14.5 9 Oeste 20 Oeste 0.2 970.6 -- 86
2021-01-25 12:00:00 13.9 8 Oeste 21 Oeste 0.1 971.2 -- 86
2021-01-25 11:00:00 12.4 3 Nordeste 7 Nordeste 0 971 -- 86
2021-01-25 10:00:00 11.5 4 Este 10 Este 0 970.4 -- 88
2021-01-25 09:00:00 10.6 0 Calma 9 Oeste 0 970.5 -- 92
2021-01-25 08:00:00 10.4 4 Oeste 13 Sudoeste 0 970.3 -- 93
2021-01-25 07:00:00 9.3 3 Este 7 Norte 0 969.7 -- 93
2021-01-25 06:00:00 9.4 3 Nordeste 8 Nordeste 0 970 -- 93
2021-01-25 05:00:00 9.4 5 Nordeste 8 Nordeste 0.1 970.3 -- 93
2021-01-25 04:00:00 9.7 2 Nordeste 6 Nordeste 0 970.4 -- 90
2021-01-25 03:00:00 9.4 2 Nordeste 6 Nordeste 0 970.5 -- 90
2021-01-25 02:00:00 9.3 2 Noroeste 7 Noroeste 0 970.7 -- 90
2021-01-25 01:00:00 9.5 0 Calma 6 Oeste 0 971 -- 88
2021-01-25 00:00:00 9.5 0 Calma 10 Noroeste 0 971.1 -- 88